Terminal Aerodrome Forecast
Issued by NWS

Home | Current Version | Previous Version | Text Only | Print | Product List | Glossary Off
Versions: 1 2 3 4 5 6 7 8 9 10 11 12 13 14 15 16 17

000
FTUS43 KABR 251500 AAA
TAFMBG
TAF AMD
KMBG 251547Z 2516/2612 31007KT 5SM BR OVC007
     FM251800 30007KT P6SM OVC025
     FM260000 24008KT P6SM BKN100=

USA.gov is the U.S. government's official web portal to all federal, state and local government web resources and services.